sensor_id;sensor_type;location;lat;lon;timestamp;temperature;humidity
17341;DHT22;8788;49.930;8.660;2023-04-25T00:02:03;10.30;99.90
17341;DHT22;8788;49.930;8.660;2023-04-25T00:04:30;10.30;99.90
17341;DHT22;8788;49.930;8.660;2023-04-25T00:06:59;10.20;99.90
17341;DHT22;8788;49.930;8.660;2023-04-25T00:09:28;10.30;99.90
17341;DHT22;8788;49.930;8.660;2023-04-25T00:11:55;10.30;99.90
17341;DHT22;8788;49.930;8.660;2023-04-25T00:14:22;10.20;99.90
17341;DHT22;8788;49.930;8.660;2023-04-25T00:16:51;10.20;99.90
17341;DHT22;8788;49.930;8.660;2023-04-25T00:19:19;10.20;99.90
17341;DHT22;8788;49.930;8.660;2023-04-25T00:21:46;10.20;99.90
17341;DHT22;8788;49.930;8.660;2023-04-25T00:24:13;10.30;99.90
17341;DHT22;8788;49.930;8.660;2023-04-25T00:26:41;10.30;99.90
17341;DHT22;8788;49.930;8.660;2023-04-25T00:29:08;10.30;99.90
17341;DHT22;8788;49.930;8.660;2023-04-25T00:31:35;10.40;99.90
17341;DHT22;8788;49.930;8.660;2023-04-25T00:34:03;10.40;99.90
17341;DHT22;8788;49.930;8.660;2023-04-25T00:36:30;10.40;99.90
17341;DHT22;8788;49.930;8.660;2023-04-25T00:38:57;10.40;99.90
17341;DHT22;8788;49.930;8.660;2023-04-25T00:41:25;10.50;99.90
17341;DHT22;8788;49.930;8.660;2023-04-25T00:43:54;10.40;99.90
17341;DHT22;8788;49.930;8.660;2023-04-25T00:46:21;10.40;99.90
17341;DHT22;8788;49.930;8.660;2023-04-25T00:48:48;10.40;99.90
17341;DHT22;8788;49.930;8.660;2023-04-25T00:51:20;10.40;99.90
17341;DHT22;8788;49.930;8.660;2023-04-25T00:53:48;10.40;99.90
17341;DHT22;8788;49.930;8.660;2023-04-25T00:56:16;10.50;99.90
17341;DHT22;8788;49.930;8.660;2023-04-25T00:58:43;10.50;99.90
17341;DHT22;8788;49.930;8.660;2023-04-25T01:01:11;10.50;99.90
17341;DHT22;8788;49.930;8.660;2023-04-25T01:03:39;10.50;99.90
17341;DHT22;8788;49.930;8.660;2023-04-25T01:06:08;10.50;99.90
17341;DHT22;8788;49.930;8.660;2023-04-25T01:08:37;10.50;99.90
17341;DHT22;8788;49.930;8.660;2023-04-25T01:11:04;10.50;99.90
17341;DHT22;8788;49.930;8.660;2023-04-25T01:13:32;10.50;99.90
17341;DHT22;8788;49.930;8.660;2023-04-25T01:16:00;10.50;99.90
17341;DHT22;8788;49.930;8.660;2023-04-25T01:18:28;10.50;99.90
17341;DHT22;8788;49.930;8.660;2023-04-25T01:20:55;10.50;99.90
17341;DHT22;8788;49.930;8.660;2023-04-25T01:23:24;10.50;99.90
17341;DHT22;8788;49.930;8.660;2023-04-25T01:25:51;10.50;99.90
17341;DHT22;8788;49.930;8.660;2023-04-25T01:28:19;10.50;99.90
17341;DHT22;8788;49.930;8.660;2023-04-25T01:30:47;10.50;99.90
17341;DHT22;8788;49.930;8.660;2023-04-25T01:33:15;10.50;99.90
17341;DHT22;8788;49.930;8.660;2023-04-25T01:35:43;10.50;99.90
17341;DHT22;8788;49.930;8.660;2023-04-25T01:38:11;10.50;99.90
17341;DHT22;8788;49.930;8.660;2023-04-25T01:40:40;10.40;99.90
17341;DHT22;8788;49.930;8.660;2023-04-25T01:43:08;10.40;99.90
17341;DHT22;8788;49.930;8.660;2023-04-25T01:45:37;10.40;99.90
17341;DHT22;8788;49.930;8.660;2023-04-25T01:48:05;10.40;99.90
17341;DHT22;8788;49.930;8.660;2023-04-25T01:50:33;10.40;99.90
17341;DHT22;8788;49.930;8.660;2023-04-25T01:53:00;10.40;99.90
17341;DHT22;8788;49.930;8.660;2023-04-25T01:55:28;10.40;99.90
17341;DHT22;8788;49.930;8.660;2023-04-25T01:58:08;10.40;99.90
17341;DHT22;8788;49.930;8.660;2023-04-25T02:01:02;10.40;99.90
17341;DHT22;8788;49.930;8.660;2023-04-25T02:03:38;10.40;99.90
17341;DHT22;8788;49.930;8.660;2023-04-25T02:06:10;10.40;99.90
17341;DHT22;8788;49.930;8.660;2023-04-25T02:08:42;10.30;99.90
17341;DHT22;8788;49.930;8.660;2023-04-25T02:11:11;10.30;99.90
17341;DHT22;8788;49.930;8.660;2023-04-25T02:13:45;10.40;99.90
17341;DHT22;8788;49.930;8.660;2023-04-25T02:16:32;10.40;99.90
17341;DHT22;8788;49.930;8.660;2023-04-25T02:19:01;10.30;99.90
17341;DHT22;8788;49.930;8.660;2023-04-25T02:21:30;10.30;99.90
17341;DHT22;8788;49.930;8.660;2023-04-25T02:23:57;10.40;99.90
17341;DHT22;8788;49.930;8.660;2023-04-25T02:26:27;10.40;99.90
17341;DHT22;8788;49.930;8.660;2023-04-25T02:28:56;10.50;99.90
17341;DHT22;8788;49.930;8.660;2023-04-25T02:31:24;10.40;99.90
17341;DHT22;8788;49.930;8.660;2023-04-25T02:33:51;10.40;99.90
17341;DHT22;8788;49.930;8.660;2023-04-25T02:36:18;10.50;99.90
17341;DHT22;8788;49.930;8.660;2023-04-25T02:38:48;10.50;99.90
17341;DHT22;8788;49.930;8.660;2023-04-25T02:41:15;10.50;99.90
17341;DHT22;8788;49.930;8.660;2023-04-25T02:43:42;10.40;99.90
17341;DHT22;8788;49.930;8.660;2023-04-25T02:46:11;10.50;99.90
17341;DHT22;8788;49.930;8.660;2023-04-25T02:48:39;10.40;99.90
17341;DHT22;8788;49.930;8.660;2023-04-25T02:51:06;10.30;99.90
17341;DHT22;8788;49.930;8.660;2023-04-25T02:53:33;10.30;99.90
17341;DHT22;8788;49.930;8.660;2023-04-25T02:56:00;10.30;99.90
17341;DHT22;8788;49.930;8.660;2023-04-25T02:58:27;10.20;99.90
17341;DHT22;8788;49.930;8.660;2023-04-25T03:00:55;10.20;99.90
17341;DHT22;8788;49.930;8.660;2023-04-25T03:03:23;10.30;99.90
17341;DHT22;8788;49.930;8.660;2023-04-25T03:05:51;10.40;99.90
17341;DHT22;8788;49.930;8.660;2023-04-25T03:08:26;10.40;99.90
17341;DHT22;8788;49.930;8.660;2023-04-25T03:10:59;10.40;99.90
17341;DHT22;8788;49.930;8.660;2023-04-25T03:13:26;10.30;99.90
17341;DHT22;8788;49.930;8.660;2023-04-25T03:15:56;10.20;99.90
17341;DHT22;8788;49.930;8.660;2023-04-25T03:18:24;10.10;99.90
17341;DHT22;8788;49.930;8.660;2023-04-25T03:20:51;10.10;99.90
17341;DHT22;8788;49.930;8.660;2023-04-25T03:23:18;10.00;99.90
17341;DHT22;8788;49.930;8.660;2023-04-25T03:25:45;9.90;99.90
17341;DHT22;8788;49.930;8.660;2023-04-25T03:28:13;10.00;99.90
17341;DHT22;8788;49.930;8.660;2023-04-25T03:30:40;10.10;99.90
17341;DHT22;8788;49.930;8.660;2023-04-25T03:33:07;10.10;99.90
17341;DHT22;8788;49.930;8.660;2023-04-25T03:35:35;10.10;99.90
17341;DHT22;8788;49.930;8.660;2023-04-25T03:38:02;10.10;99.90
17341;DHT22;8788;49.930;8.660;2023-04-25T03:40:34;10.20;99.90
17341;DHT22;8788;49.930;8.660;2023-04-25T03:43:07;10.20;99.90
17341;DHT22;8788;49.930;8.660;2023-04-25T03:45:36;10.20;99.90
17341;DHT22;8788;49.930;8.660;2023-04-25T03:48:04;10.20;99.90
17341;DHT22;8788;49.930;8.660;2023-04-25T03:50:32;10.30;99.90
17341;DHT22;8788;49.930;8.660;2023-04-25T03:53:00;10.20;99.90
17341;DHT22;8788;49.930;8.660;2023-04-25T03:55:33;10.30;99.90
17341;DHT22;8788;49.930;8.660;2023-04-25T03:58:00;10.20;99.90
17341;DHT22;8788;49.930;8.660;2023-04-25T04:00:27;10.20;99.90
17341;DHT22;8788;49.930;8.660;2023-04-25T04:02:55;10.20;99.90
17341;DHT22;8788;49.930;8.660;2023-04-25T04:05:22;10.20;99.90
17341;DHT22;8788;49.930;8.660;2023-04-25T04:07:54;10.20;99.90
17341;DHT22;8788;49.930;8.660;2023-04-25T04:10:23;10.20;99.90
17341;DHT22;8788;49.930;8.660;2023-04-25T04:12:51;10.20;99.90
17341;DHT22;8788;49.930;8.660;2023-04-25T04:15:19;10.30;99.90
17341;DHT22;8788;49.930;8.660;2023-04-25T04:17:48;10.30;99.90
17341;DHT22;8788;49.930;8.660;2023-04-25T04:20:15;10.30;99.90
17341;DHT22;8788;49.930;8.660;2023-04-25T04:22:42;10.20;99.90
17341;DHT22;8788;49.930;8.660;2023-04-25T04:25:12;10.20;99.90
17341;DHT22;8788;49.930;8.660;2023-04-25T04:27:59;10.10;99.90
17341;DHT22;8788;49.930;8.660;2023-04-25T04:30:39;10.10;99.90
17341;DHT22;8788;49.930;8.660;2023-04-25T04:33:08;10.00;99.90
17341;DHT22;8788;49.930;8.660;2023-04-25T04:35:35;10.00;99.90
17341;DHT22;8788;49.930;8.660;2023-04-25T04:38:02;9.90;99.90
17341;DHT22;8788;49.930;8.660;2023-04-25T04:40:33;10.00;99.90
17341;DHT22;8788;49.930;8.660;2023-04-25T04:43:22;10.00;99.90
17341;DHT22;8788;49.930;8.660;2023-04-25T04:46:07;10.10;99.90
17341;DHT22;8788;49.930;8.660;2023-04-25T04:48:55;10.10;99.90
17341;DHT22;8788;49.930;8.660;2023-04-25T04:51:48;10.10;99.90
17341;DHT22;8788;49.930;8.660;2023-04-25T04:54:34;10.00;99.90
17341;DHT22;8788;49.930;8.660;2023-04-25T04:57:14;10.00;99.90
17341;DHT22;8788;49.930;8.660;2023-04-25T05:00:14;9.90;99.90
17341;DHT22;8788;49.930;8.660;2023-04-25T05:02:59;9.90;99.90
17341;DHT22;8788;49.930;8.660;2023-04-25T05:05:39;9.90;99.90
17341;DHT22;8788;49.930;8.660;2023-04-25T05:08:31;9.90;99.90
17341;DHT22;8788;49.930;8.660;2023-04-25T05:11:14;9.80;99.90
17341;DHT22;8788;49.930;8.660;2023-04-25T05:13:54;9.80;99.90
17341;DHT22;8788;49.930;8.660;2023-04-25T05:16:41;9.80;99.90
17341;DHT22;8788;49.930;8.660;2023-04-25T05:19:29;9.70;99.90
17341;DHT22;8788;49.930;8.660;2023-04-25T05:22:35;9.60;99.90
17341;DHT22;8788;49.930;8.660;2023-04-25T05:25:16;9.60;99.90
17341;DHT22;8788;49.930;8.660;2023-04-25T05:27:56;9.50;99.90
17341;DHT22;8788;49.930;8.660;2023-04-25T05:30:46;9.40;99.90
17341;DHT22;8788;49.930;8.660;2023-04-25T05:33:18;9.40;99.90
17341;DHT22;8788;49.930;8.660;2023-04-25T05:35:46;9.50;99.90
17341;DHT22;8788;49.930;8.660;2023-04-25T05:38:14;9.50;99.90
17341;DHT22;8788;49.930;8.660;2023-04-25T05:41:13;9.50;99.90
17341;DHT22;8788;49.930;8.660;2023-04-25T05:44:01;9.60;99.90
17341;DHT22;8788;49.930;8.660;2023-04-25T05:46:29;9.70;99.90
17341;DHT22;8788;49.930;8.660;2023-04-25T05:49:18;9.70;99.90
17341;DHT22;8788;49.930;8.660;2023-04-25T05:51:53;9.70;99.90
17341;DHT22;8788;49.930;8.660;2023-04-25T05:54:51;9.70;99.90
17341;DHT22;8788;49.930;8.660;2023-04-25T05:57:20;9.80;99.90
17341;DHT22;8788;49.930;8.660;2023-04-25T05:59:48;9.80;99.90
17341;DHT22;8788;49.930;8.660;2023-04-25T06:02:15;9.80;99.90
17341;DHT22;8788;49.930;8.660;2023-04-25T06:04:44;9.90;99.90
17341;DHT22;8788;49.930;8.660;2023-04-25T06:07:11;10.00;99.90
17341;DHT22;8788;49.930;8.660;2023-04-25T06:09:39;10.00;99.90
17341;DHT22;8788;49.930;8.660;2023-04-25T06:12:06;10.10;99.90
17341;DHT22;8788;49.930;8.660;2023-04-25T06:14:34;10.20;99.90
17341;DHT22;8788;49.930;8.660;2023-04-25T06:17:02;10.20;99.90
17341;DHT22;8788;49.930;8.660;2023-04-25T06:19:32;10.20;99.90
17341;DHT22;8788;49.930;8.660;2023-04-25T06:22:01;10.30;99.90
17341;DHT22;8788;49.930;8.660;2023-04-25T06:24:29;10.40;99.90
17341;DHT22;8788;49.930;8.660;2023-04-25T06:26:56;10.50;99.90
17341;DHT22;8788;49.930;8.660;2023-04-25T06:29:24;10.50;99.90
17341;DHT22;8788;49.930;8.660;2023-04-25T06:31:52;10.50;99.90
17341;DHT22;8788;49.930;8.660;2023-04-25T06:34:20;10.50;99.90
17341;DHT22;8788;49.930;8.660;2023-04-25T06:36:47;10.60;99.90
17341;DHT22;8788;49.930;8.660;2023-04-25T06:39:17;10.50;99.90
17341;DHT22;8788;49.930;8.660;2023-04-25T06:41:45;10.60;99.90
17341;DHT22;8788;49.930;8.660;2023-04-25T06:44:31;10.60;99.90
17341;DHT22;8788;49.930;8.660;2023-04-25T06:46:58;10.60;99.90
17341;DHT22;8788;49.930;8.660;2023-04-25T06:49:25;10.60;99.90
17341;DHT22;8788;49.930;8.660;2023-04-25T06:51:53;10.60;99.90
17341;DHT22;8788;49.930;8.660;2023-04-25T06:54:21;10.80;99.90
17341;DHT22;8788;49.930;8.660;2023-04-25T06:57:03;11.00;99.90
17341;DHT22;8788;49.930;8.660;2023-04-25T06:59:32;11.10;99.90
17341;DHT22;8788;49.930;8.660;2023-04-25T07:01:59;11.10;99.90
17341;DHT22;8788;49.930;8.660;2023-04-25T07:04:26;11.10;99.90
17341;DHT22;8788;49.930;8.660;2023-04-25T07:06:56;11.20;99.90
17341;DHT22;8788;49.930;8.660;2023-04-25T07:09:32;11.20;99.90
17341;DHT22;8788;49.930;8.660;2023-04-25T07:12:00;11.30;99.90
17341;DHT22;8788;49.930;8.660;2023-04-25T07:14:28;11.40;99.90
17341;DHT22;8788;49.930;8.660;2023-04-25T07:16:55;11.50;99.90
17341;DHT22;8788;49.930;8.660;2023-04-25T07:19:25;11.60;99.90
17341;DHT22;8788;49.930;8.660;2023-04-25T07:21:55;11.70;99.90
17341;DHT22;8788;49.930;8.660;2023-04-25T07:24:22;11.60;99.90
17341;DHT22;8788;49.930;8.660;2023-04-25T07:26:52;11.60;99.90
17341;DHT22;8788;49.930;8.660;2023-04-25T07:29:42;11.50;99.90
17341;DHT22;8788;49.930;8.660;2023-04-25T07:32:09;11.30;99.90
17341;DHT22;8788;49.930;8.660;2023-04-25T07:34:37;11.30;99.90
17341;DHT22;8788;49.930;8.660;2023-04-25T07:37:05;11.20;99.90
17341;DHT22;8788;49.930;8.660;2023-04-25T07:39:40;11.20;99.90
17341;DHT22;8788;49.930;8.660;2023-04-25T07:42:09;11.30;99.90
17341;DHT22;8788;49.930;8.660;2023-04-25T07:44:43;11.40;99.90
17341;DHT22;8788;49.930;8.660;2023-04-25T07:47:13;11.40;99.90
17341;DHT22;8788;49.930;8.660;2023-04-25T07:49:41;11.50;99.90
17341;DHT22;8788;49.930;8.660;2023-04-25T07:52:08;11.60;99.90
17341;DHT22;8788;49.930;8.660;2023-04-25T07:54:37;11.60;99.90
17341;DHT22;8788;49.930;8.660;2023-04-25T07:57:13;11.70;99.90
17341;DHT22;8788;49.930;8.660;2023-04-25T07:59:43;11.70;99.90
17341;DHT22;8788;49.930;8.660;2023-04-25T08:02:11;11.70;99.90
17341;DHT22;8788;49.930;8.660;2023-04-25T08:04:39;11.80;99.90
17341;DHT22;8788;49.930;8.660;2023-04-25T08:07:08;11.90;99.90
17341;DHT22;8788;49.930;8.660;2023-04-25T08:09:46;11.80;99.90
17341;DHT22;8788;49.930;8.660;2023-04-25T08:12:23;11.70;99.90
17341;DHT22;8788;49.930;8.660;2023-04-25T08:14:51;11.70;99.90
17341;DHT22;8788;49.930;8.660;2023-04-25T08:17:18;11.70;99.90
17341;DHT22;8788;49.930;8.660;2023-04-25T08:19:45;11.70;99.90
17341;DHT22;8788;49.930;8.660;2023-04-25T08:22:21;11.60;99.90
17341;DHT22;8788;49.930;8.660;2023-04-25T08:24:54;11.70;99.90
17341;DHT22;8788;49.930;8.660;2023-04-25T08:27:23;11.70;99.90
17341;DHT22;8788;49.930;8.660;2023-04-25T08:29:50;11.80;99.90
17341;DHT22;8788;49.930;8.660;2023-04-25T08:32:18;11.80;99.90
17341;DHT22;8788;49.930;8.660;2023-04-25T08:35:02;11.80;99.90
17341;DHT22;8788;49.930;8.660;2023-04-25T08:37:30;11.90;99.90
17341;DHT22;8788;49.930;8.660;2023-04-25T08:40:01;11.80;99.90
17341;DHT22;8788;49.930;8.660;2023-04-25T08:42:53;12.00;99.90
17341;DHT22;8788;49.930;8.660;2023-04-25T08:45:21;12.20;99.90
17341;DHT22;8788;49.930;8.660;2023-04-25T08:47:51;12.40;99.90
17341;DHT22;8788;49.930;8.660;2023-04-25T08:50:20;12.50;99.90
17341;DHT22;8788;49.930;8.660;2023-04-25T08:52:53;12.70;99.90
17341;DHT22;8788;49.930;8.660;2023-04-25T08:55:21;12.90;99.90
17341;DHT22;8788;49.930;8.660;2023-04-25T08:57:55;12.90;99.90
17341;DHT22;8788;49.930;8.660;2023-04-25T09:00:23;13.10;99.90
17341;DHT22;8788;49.930;8.660;2023-04-25T09:02:50;12.90;99.90
17341;DHT22;8788;49.930;8.660;2023-04-25T09:05:18;12.70;99.90
17341;DHT22;8788;49.930;8.660;2023-04-25T09:07:45;12.70;99.90
17341;DHT22;8788;49.930;8.660;2023-04-25T09:10:12;12.80;99.90
17341;DHT22;8788;49.930;8.660;2023-04-25T09:12:39;12.90;99.90
17341;DHT22;8788;49.930;8.660;2023-04-25T09:15:11;13.00;99.90
17341;DHT22;8788;49.930;8.660;2023-04-25T09:18:07;13.20;99.90
17341;DHT22;8788;49.930;8.660;2023-04-25T09:20:41;13.00;99.90
17341;DHT22;8788;49.930;8.660;2023-04-25T09:23:09;13.00;99.90
17341;DHT22;8788;49.930;8.660;2023-04-25T09:25:37;13.00;99.90
17341;DHT22;8788;49.930;8.660;2023-04-25T09:28:07;12.90;99.90
17341;DHT22;8788;49.930;8.660;2023-04-25T09:30:36;12.80;99.90
17341;DHT22;8788;49.930;8.660;2023-04-25T09:33:10;12.80;99.90
17341;DHT22;8788;49.930;8.660;2023-04-25T09:35:43;12.90;99.90
17341;DHT22;8788;49.930;8.660;2023-04-25T09:38:22;12.90;99.90
17341;DHT22;8788;49.930;8.660;2023-04-25T09:40:56;12.80;99.90
17341;DHT22;8788;49.930;8.660;2023-04-25T09:43:38;12.80;99.90
17341;DHT22;8788;49.930;8.660;2023-04-25T09:46:09;12.80;99.90
17341;DHT22;8788;49.930;8.660;2023-04-25T09:48:48;12.80;99.90
17341;DHT22;8788;49.930;8.660;2023-04-25T09:51:17;12.70;99.90
17341;DHT22;8788;49.930;8.660;2023-04-25T09:53:46;12.70;99.90
17341;DHT22;8788;49.930;8.660;2023-04-25T09:56:39;12.70;99.90
17341;DHT22;8788;49.930;8.660;2023-04-25T09:59:11;12.70;99.90
17341;DHT22;8788;49.930;8.660;2023-04-25T10:01:40;12.70;99.90
17341;DHT22;8788;49.930;8.660;2023-04-25T10:04:24;12.60;99.90
17341;DHT22;8788;49.930;8.660;2023-04-25T10:06:57;12.60;99.90
17341;DHT22;8788;49.930;8.660;2023-04-25T10:09:26;12.50;99.90
17341;DHT22;8788;49.930;8.660;2023-04-25T10:11:58;12.40;99.90
17341;DHT22;8788;49.930;8.660;2023-04-25T10:14:26;12.40;99.90
17341;DHT22;8788;49.930;8.660;2023-04-25T10:16:55;12.40;99.90
17341;DHT22;8788;49.930;8.660;2023-04-25T10:19:22;12.40;99.90
17341;DHT22;8788;49.930;8.660;2023-04-25T10:21:52;12.40;99.90
17341;DHT22;8788;49.930;8.660;2023-04-25T10:24:20;12.50;99.90
17341;DHT22;8788;49.930;8.660;2023-04-25T10:26:47;12.50;99.90
17341;DHT22;8788;49.930;8.660;2023-04-25T10:29:22;12.40;99.90
17341;DHT22;8788;49.930;8.660;2023-04-25T10:31:49;12.40;99.90
17341;DHT22;8788;49.930;8.660;2023-04-25T10:34:18;12.40;99.90
17341;DHT22;8788;49.930;8.660;2023-04-25T10:36:50;12.60;99.90
17341;DHT22;8788;49.930;8.660;2023-04-25T10:39:22;12.60;99.90
17341;DHT22;8788;49.930;8.660;2023-04-25T10:41:55;12.80;99.90
17341;DHT22;8788;49.930;8.660;2023-04-25T10:44:22;13.00;99.90
17341;DHT22;8788;49.930;8.660;2023-04-25T10:46:49;13.10;99.90
17341;DHT22;8788;49.930;8.660;2023-04-25T10:49:36;13.10;99.90
17341;DHT22;8788;49.930;8.660;2023-04-25T10:52:17;13.10;99.90
17341;DHT22;8788;49.930;8.660;2023-04-25T10:54:48;12.90;99.90
17341;DHT22;8788;49.930;8.660;2023-04-25T10:57:36;12.90;99.90
17341;DHT22;8788;49.930;8.660;2023-04-25T11:00:09;12.90;99.90
17341;DHT22;8788;49.930;8.660;2023-04-25T11:02:40;12.80;99.90
17341;DHT22;8788;49.930;8.660;2023-04-25T11:05:10;12.90;99.90
17341;DHT22;8788;49.930;8.660;2023-04-25T11:07:46;13.00;99.90
17341;DHT22;8788;49.930;8.660;2023-04-25T11:10:15;13.20;99.90
17341;DHT22;8788;49.930;8.660;2023-04-25T11:12:42;13.30;99.90
17341;DHT22;8788;49.930;8.660;2023-04-25T11:15:10;13.30;99.90
17341;DHT22;8788;49.930;8.660;2023-04-25T11:17:37;13.40;99.90
17341;DHT22;8788;49.930;8.660;2023-04-25T11:20:07;13.50;99.90
17341;DHT22;8788;49.930;8.660;2023-04-25T11:22:39;13.50;99.90
17341;DHT22;8788;49.930;8.660;2023-04-25T11:25:08;13.60;99.90
17341;DHT22;8788;49.930;8.660;2023-04-25T11:27:38;13.50;99.90
17341;DHT22;8788;49.930;8.660;2023-04-25T11:30:16;13.30;99.90
17341;DHT22;8788;49.930;8.660;2023-04-25T11:32:43;13.20;99.90
17341;DHT22;8788;49.930;8.660;2023-04-25T11:35:11;13.10;99.90
17341;DHT22;8788;49.930;8.660;2023-04-25T11:37:40;13.10;99.90
17341;DHT22;8788;49.930;8.660;2023-04-25T11:40:08;13.00;99.90
17341;DHT22;8788;49.930;8.660;2023-04-25T11:42:37;12.90;99.90
17341;DHT22;8788;49.930;8.660;2023-04-25T11:45:08;13.00;99.90
17341;DHT22;8788;49.930;8.660;2023-04-25T11:47:36;13.00;99.90
17341;DHT22;8788;49.930;8.660;2023-04-25T11:50:05;13.00;99.90
17341;DHT22;8788;49.930;8.660;2023-04-25T11:52:41;13.00;99.90
17341;DHT22;8788;49.930;8.660;2023-04-25T11:55:10;13.10;99.90
17341;DHT22;8788;49.930;8.660;2023-04-25T11:57:40;13.10;99.90
17341;DHT22;8788;49.930;8.660;2023-04-25T12:00:10;13.10;99.90
17341;DHT22;8788;49.930;8.660;2023-04-25T12:02:41;13.00;99.90
17341;DHT22;8788;49.930;8.660;2023-04-25T12:05:08;13.00;99.90
17341;DHT22;8788;49.930;8.660;2023-04-25T12:07:35;13.00;99.90
17341;DHT22;8788;49.930;8.660;2023-04-25T12:10:09;13.00;99.90
17341;DHT22;8788;49.930;8.660;2023-04-25T12:12:38;12.90;99.90
17341;DHT22;8788;49.930;8.660;2023-04-25T12:15:12;12.90;99.90
17341;DHT22;8788;49.930;8.660;2023-04-25T12:17:41;13.00;99.90
17341;DHT22;8788;49.930;8.660;2023-04-25T12:20:10;13.00;99.90
17341;DHT22;8788;49.930;8.660;2023-04-25T12:22:40;13.00;99.90
17341;DHT22;8788;49.930;8.660;2023-04-25T12:25:12;13.10;99.90
17341;DHT22;8788;49.930;8.660;2023-04-25T12:27:40;13.30;99.90
17341;DHT22;8788;49.930;8.660;2023-04-25T12:30:09;13.40;99.90
17341;DHT22;8788;49.930;8.660;2023-04-25T12:32:37;13.40;99.90
17341;DHT22;8788;49.930;8.660;2023-04-25T12:35:05;13.50;99.90
17341;DHT22;8788;49.930;8.660;2023-04-25T12:37:32;13.50;99.90
17341;DHT22;8788;49.930;8.660;2023-04-25T12:39:59;13.50;99.90
17341;DHT22;8788;49.930;8.660;2023-04-25T12:42:28;13.40;99.90
17341;DHT22;8788;49.930;8.660;2023-04-25T12:44:55;13.40;99.90
17341;DHT22;8788;49.930;8.660;2023-04-25T12:47:22;13.60;99.90
17341;DHT22;8788;49.930;8.660;2023-04-25T12:49:49;13.90;99.90
17341;DHT22;8788;49.930;8.660;2023-04-25T12:52:16;14.30;99.10
17341;DHT22;8788;49.930;8.660;2023-04-25T12:54:43;14.30;98.80
17341;DHT22;8788;49.930;8.660;2023-04-25T12:57:10;14.40;98.80
17341;DHT22;8788;49.930;8.660;2023-04-25T12:59:39;14.80;99.30
17341;DHT22;8788;49.930;8.660;2023-04-25T13:02:06;14.90;98.50
17341;DHT22;8788;49.930;8.660;2023-04-25T13:04:33;14.80;97.50
17341;DHT22;8788;49.930;8.660;2023-04-25T13:07:00;14.70;97.30
17341;DHT22;8788;49.930;8.660;2023-04-25T13:09:27;14.50;96.80
17341;DHT22;8788;49.930;8.660;2023-04-25T13:11:54;14.30;97.10
17341;DHT22;8788;49.930;8.660;2023-04-25T13:14:21;14.20;96.80
17341;DHT22;8788;49.930;8.660;2023-04-25T13:16:50;13.90;96.50
17341;DHT22;8788;49.930;8.660;2023-04-25T13:19:17;13.80;96.70
17341;DHT22;8788;49.930;8.660;2023-04-25T13:21:44;13.70;96.60
17341;DHT22;8788;49.930;8.660;2023-04-25T13:24:11;13.60;96.40
17341;DHT22;8788;49.930;8.660;2023-04-25T13:26:38;13.50;96.20
17341;DHT22;8788;49.930;8.660;2023-04-25T13:29:05;13.30;96.70
17341;DHT22;8788;49.930;8.660;2023-04-25T13:31:32;13.30;96.80
17341;DHT22;8788;49.930;8.660;2023-04-25T13:34:01;13.40;96.90
17341;DHT22;8788;49.930;8.660;2023-04-25T13:36:29;13.40;96.60
17341;DHT22;8788;49.930;8.660;2023-04-25T13:38:57;13.50;97.10
17341;DHT22;8788;49.930;8.660;2023-04-25T13:41:24;13.70;97.70
17341;DHT22;8788;49.930;8.660;2023-04-25T13:43:51;14.00;97.50
17341;DHT22;8788;49.930;8.660;2023-04-25T13:46:19;14.20;97.30
17341;DHT22;8788;49.930;8.660;2023-04-25T13:48:46;14.10;96.30
17341;DHT22;8788;49.930;8.660;2023-04-25T13:51:16;14.00;96.30
17341;DHT22;8788;49.930;8.660;2023-04-25T13:53:43;13.90;96.00
17341;DHT22;8788;49.930;8.660;2023-04-25T13:56:11;13.80;95.60
17341;DHT22;8788;49.930;8.660;2023-04-25T13:58:38;13.80;95.90
17341;DHT22;8788;49.930;8.660;2023-04-25T14:01:05;13.70;94.20
17341;DHT22;8788;49.930;8.660;2023-04-25T14:03:33;13.60;94.70
17341;DHT22;8788;49.930;8.660;2023-04-25T14:06:00;13.70;95.30
17341;DHT22;8788;49.930;8.660;2023-04-25T14:08:29;13.80;94.90
17341;DHT22;8788;49.930;8.660;2023-04-25T14:10:56;13.90;95.10
17341;DHT22;8788;49.930;8.660;2023-04-25T14:13:23;14.30;94.90
17341;DHT22;8788;49.930;8.660;2023-04-25T14:15:50;14.80;95.30
17341;DHT22;8788;49.930;8.660;2023-04-25T14:18:17;15.30;95.00
17341;DHT22;8788;49.930;8.660;2023-04-25T14:20:45;15.30;95.00
17341;DHT22;8788;49.930;8.660;2023-04-25T14:23:12;15.00;93.40
17341;DHT22;8788;49.930;8.660;2023-04-25T14:25:40;14.70;92.90
17341;DHT22;8788;49.930;8.660;2023-04-25T14:28:09;14.50;93.10
17341;DHT22;8788;49.930;8.660;2023-04-25T14:30:36;14.40;93.20
17341;DHT22;8788;49.930;8.660;2023-04-25T14:33:04;14.30;93.70
17341;DHT22;8788;49.930;8.660;2023-04-25T14:35:31;14.60;94.20
17341;DHT22;8788;49.930;8.660;2023-04-25T14:37:58;14.70;93.80
17341;DHT22;8788;49.930;8.660;2023-04-25T14:40:26;14.60;93.40
17341;DHT22;8788;49.930;8.660;2023-04-25T14:42:54;14.60;93.20
17341;DHT22;8788;49.930;8.660;2023-04-25T14:45:21;14.50;93.20
17341;DHT22;8788;49.930;8.660;2023-04-25T14:47:49;14.50;93.20
17341;DHT22;8788;49.930;8.660;2023-04-25T14:50:16;14.40;92.90
17341;DHT22;8788;49.930;8.660;2023-04-25T14:52:44;14.20;93.00
17341;DHT22;8788;49.930;8.660;2023-04-25T14:55:11;14.10;91.20
17341;DHT22;8788;49.930;8.660;2023-04-25T14:57:38;13.90;91.30
17341;DHT22;8788;49.930;8.660;2023-04-25T15:00:08;13.80;91.20
17341;DHT22;8788;49.930;8.660;2023-04-25T15:02:37;13.70;91.50
17341;DHT22;8788;49.930;8.660;2023-04-25T15:05:05;13.70;92.00
17341;DHT22;8788;49.930;8.660;2023-04-25T15:07:34;13.80;92.20
17341;DHT22;8788;49.930;8.660;2023-04-25T15:10:01;13.80;91.90
17341;DHT22;8788;49.930;8.660;2023-04-25T15:12:28;13.90;91.30
17341;DHT22;8788;49.930;8.660;2023-04-25T15:14:55;13.90;90.70
17341;DHT22;8788;49.930;8.660;2023-04-25T15:17:24;14.20;90.80
17341;DHT22;8788;49.930;8.660;2023-04-25T15:19:51;14.60;89.50
17341;DHT22;8788;49.930;8.660;2023-04-25T15:22:20;14.50;90.10
17341;DHT22;8788;49.930;8.660;2023-04-25T15:24:47;14.30;89.50
17341;DHT22;8788;49.930;8.660;2023-04-25T15:27:14;14.20;90.20
17341;DHT22;8788;49.930;8.660;2023-04-25T15:29:43;14.00;89.20
17341;DHT22;8788;49.930;8.660;2023-04-25T15:32:10;13.70;89.10
17341;DHT22;8788;49.930;8.660;2023-04-25T15:34:39;13.40;90.00
17341;DHT22;8788;49.930;8.660;2023-04-25T15:37:06;13.30;90.70
17341;DHT22;8788;49.930;8.660;2023-04-25T15:39:33;13.30;91.10
17341;DHT22;8788;49.930;8.660;2023-04-25T15:42:00;13.20;91.10
17341;DHT22;8788;49.930;8.660;2023-04-25T15:44:28;13.20;91.50
17341;DHT22;8788;49.930;8.660;2023-04-25T15:46:55;13.10;91.70
17341;DHT22;8788;49.930;8.660;2023-04-25T15:49:22;13.10;91.80
17341;DHT22;8788;49.930;8.660;2023-04-25T15:51:50;13.00;91.80
17341;DHT22;8788;49.930;8.660;2023-04-25T15:54:18;13.00;92.20
17341;DHT22;8788;49.930;8.660;2023-04-25T15:56:45;13.20;92.30
17341;DHT22;8788;49.930;8.660;2023-04-25T15:59:12;13.30;92.40
17341;DHT22;8788;49.930;8.660;2023-04-25T16:01:39;13.50;92.70
17341;DHT22;8788;49.930;8.660;2023-04-25T16:04:06;13.70;92.10
17341;DHT22;8788;49.930;8.660;2023-04-25T16:06:33;13.60;92.10
17341;DHT22;8788;49.930;8.660;2023-04-25T16:09:02;13.60;91.90